Highland-University Park's Hourly Summary for Friday, May 11, 2018
Hour Temp
(f)
RH
(%)
Solar Rad.
(MJ/m2)
Rainfall
(in)
Wind
(mph)
5/11/2018 12:00 AM 76 53 0 0 3.52
5/11/2018 1:00 AM 75 56 0 0 2.68
5/11/2018 2:00 AM 74 62 0 0 3.5
5/11/2018 3:00 AM 73 68 0 0 3.14
5/11/2018 4:00 AM 71 74 0 0 3.09
5/11/2018 5:00 AM 70 78 0 0 2.95
5/11/2018 6:00 AM 70 81 0 0 3.18
5/11/2018 7:00 AM 70 80 0.02 0 2.75
5/11/2018 8:00 AM 71 77 0.19 0 2.63
5/11/2018 9:00 AM 72 71 0.43 0 3.6
5/11/2018 10:00 AM 74 64 1.42 0 3.32
5/11/2018 11:00 AM 78 57 2.15 0 3.47
5/11/2018 12:00 PM 81 49 3.03 0 4.07
5/11/2018 1:00 PM 83 45 2.63 0 4.04
5/11/2018 2:00 PM 84 45 2.14 0 3.32
5/11/2018 3:00 PM 86 41 2.62 0 3.69
5/11/2018 4:00 PM 87 39 2.82 0 3.76
5/11/2018 5:00 PM 88 38 2.32 0 3.77
5/11/2018 6:00 PM 88 38 1.69 0 3.16
5/11/2018 7:00 PM 87 38 0.99 0 3.31
5/11/2018 8:00 PM 85 40 0.16 0 3.46
5/11/2018 9:00 PM 82 46 0.01 0 2.94
5/11/2018 10:00 PM 80 50 0 0 2.24
5/11/2018 11:00 PM 79 54 0 0 2.83
Data Summary 78 56 22.62 0.00 3.27